Time;durP1;ratioP1;P1;durP2;ratioP2;P2;SDS_P1;SDS_P2;PMS_P1;PMS_P2;Temp;Humidity;BMP_temperature;BMP_pressure;BME280_temperature;BME280_humidity;BME280_pressure;Samples;Min_cycle;Max_cycle;Signal;HPM_P1;HPM_P2
2021/10/18 00:01:07;;;;;;;37.20;18.85;;;;;;;4.87;100.00;102165.06;5186874;28;20029;-73
2021/10/18 00:03:38;;;;;;;31.95;17.10;;;;;;;4.86;100.00;102169.53;5191146;28;20030;-73
2021/10/18 00:06:09;;;;;;;36.08;17.40;;;;;;;4.85;100.00;102169.66;5189441;28;20025;-74
2021/10/18 00:08:39;;;;;;;37.50;19.08;;;;;;;4.82;100.00;102169.81;5186441;28;20438;-74
2021/10/18 00:11:10;;;;;;;35.92;19.60;;;;;;;4.78;100.00;102163.03;5192931;28;20553;-73
2021/10/18 00:13:40;;;;;;;41.75;19.48;;;;;;;4.77;100.00;102171.91;5197574;28;20064;-73
2021/10/18 00:16:11;;;;;;;43.22;21.00;;;;;;;4.74;100.00;102166.81;5181710;28;20116;-73
2021/10/18 00:18:42;;;;;;;49.33;20.98;;;;;;;4.72;100.00;102166.03;5194570;28;20495;-73
2021/10/18 00:21:13;;;;;;;41.75;19.45;;;;;;;4.71;100.00;102159.88;5181716;28;20076;-73
2021/10/18 00:23:44;;;;;;;37.75;20.58;;;;;;;4.70;100.00;102155.50;5176230;28;20032;-73
2021/10/18 00:26:14;;;;;;;38.58;17.70;;;;;;;4.70;100.00;102171.47;5187457;28;20428;-72
2021/10/18 00:28:45;;;;;;;29.63;15.05;;;;;;;4.74;100.00;102167.66;5190036;28;20045;-73
2021/10/18 00:31:15;;;;;;;28.83;14.93;;;;;;;4.79;100.00;102173.56;5188858;28;20104;-73
2021/10/18 00:33:46;;;;;;;28.08;14.07;;;;;;;4.89;100.00;102187.13;5192417;28;20430;-73
2021/10/18 00:36:17;;;;;;;32.40;17.77;;;;;;;4.90;100.00;102181.69;5181274;28;20398;-73
2021/10/18 00:38:47;;;;;;;38.30;17.13;;;;;;;4.88;100.00;102185.41;5191817;28;20028;-73
2021/10/18 00:41:19;;;;;;;30.98;16.92;;;;;;;4.81;100.00;102184.94;5187950;28;20103;-73
2021/10/18 00:43:51;;;;;;;35.10;18.27;;;;;;;4.76;100.00;102188.84;5188197;28;20053;-75
2021/10/18 00:46:23;;;;;;;32.25;16.15;;;;;;;4.71;100.00;102193.59;5201728;28;20124;-73
2021/10/18 00:48:54;;;;;;;30.25;17.35;;;;;;;4.66;100.00;102185.88;5200885;28;20025;-73
2021/10/18 00:51:26;;;;;;;34.58;16.50;;;;;;;4.60;100.00;102178.31;5190370;28;20029;-73
2021/10/18 00:53:59;;;;;;;159.55;18.50;;;;;;;4.55;100.00;102183.06;5197842;28;20047;-73
2021/10/18 00:56:29;;;;;;;24.60;14.82;;;;;;;4.48;100.00;102179.06;5191968;28;20037;-73
2021/10/18 00:59:01;;;;;;;29.83;14.70;;;;;;;4.43;100.00;102168.72;5200907;28;20025;-73
2021/10/18 01:01:32;;;;;;;25.25;13.63;;;;;;;4.41;100.00;102166.13;5188380;28;20044;-73
2021/10/18 01:04:04;;;;;;;31.83;15.38;;;;;;;4.43;100.00;102176.69;5187746;28;20022;-73
2021/10/18 01:06:34;;;;;;;37.92;17.48;;;;;;;4.45;100.00;102163.31;5201443;28;20021;-73
2021/10/18 01:09:05;;;;;;;67.68;16.13;;;;;;;4.43;100.00;102170.53;5182169;28;20521;-72
2021/10/18 01:11:35;;;;;;;28.30;15.35;;;;;;;4.39;100.00;102164.53;5194014;28;20104;-72
2021/10/18 01:14:07;;;;;;;31.02;16.35;;;;;;;4.37;100.00;102166.44;5189758;28;20021;-73
2021/10/18 01:16:38;;;;;;;33.17;16.65;;;;;;;4.35;100.00;102161.22;5169958;28;20060;-72
2021/10/18 01:19:11;;;;;;;33.30;15.82;;;;;;;4.36;100.00;102162.91;5200320;28;20021;-72
2021/10/18 01:21:56;;;;;;;30.83;16.02;;;;;;;4.37;100.00;102169.97;5201709;28;20045;-72
2021/10/18 01:24:33;;;;;;;29.50;16.10;;;;;;;4.38;100.00;102171.66;5200570;28;20104;-73
2021/10/18 01:27:07;;;;;;;24.92;13.77;;;;;;;4.39;100.00;102170.72;5192562;28;20403;-73
2021/10/18 01:29:38;;;;;;;27.13;14.00;;;;;;;4.48;100.00;102179.06;5193057;28;20374;-73
2021/10/18 01:32:09;;;;;;;29.40;15.02;;;;;;;4.56;100.00;102172.31;5181159;28;20056;-73
2021/10/18 01:34:39;;;;;;;31.58;16.83;;;;;;;4.56;100.00;102176.78;5176330;28;20037;-73
2021/10/18 01:37:09;;;;;;;32.00;16.58;;;;;;;4.55;100.00;102178.59;5180227;28;20122;-73
2021/10/18 01:39:40;;;;;;;29.95;16.33;;;;;;;4.52;100.00;102177.91;5193660;28;20026;-74
2021/10/18 01:42:11;;;;;;;29.38;15.52;;;;;;;4.52;100.00;102185.88;5180354;28;20236;-73
2021/10/18 01:44:42;;;;;;;29.52;15.65;;;;;;;4.52;100.00;102175.25;5167487;28;20030;-73
2021/10/18 01:47:13;;;;;;;31.30;16.27;;;;;;;4.48;100.00;102179.94;5194980;28;20020;-73
2021/10/18 01:49:43;;;;;;;30.00;16.20;;;;;;;4.41;100.00;102182.09;5193962;28;20018;-74
2021/10/18 01:52:14;;;;;;;32.50;16.33;;;;;;;4.36;100.00;102172.69;5196153;28;20021;-73
2021/10/18 01:54:49;;;;;;;;;;;;;;;4.30;100.00;102168.59;5200990;28;20025;-73
2021/10/18 01:57:20;;;;;;;37.50;16.65;;;;;;;4.24;100.00;102166.31;5200496;28;19913;-74
2021/10/18 01:59:51;;;;;;;30.27;16.05;;;;;;;4.18;100.00;102160.53;5200413;28;20017;-74
2021/10/18 02:02:22;;;;;;;28.63;15.50;;;;;;;4.13;100.00;102166.13;5162415;28;20438;-73
2021/10/18 02:04:52;;;;;;;30.35;14.80;;;;;;;4.08;100.00;102163.75;5175705;28;20025;-72
2021/10/18 02:07:23;;;;;;;33.30;17.50;;;;;;;4.07;100.00;102155.88;5193165;28;20121;-72
2021/10/18 02:09:54;;;;;;;26.65;14.60;;;;;;;4.04;100.00;102151.59;5193848;28;20021;-72
2021/10/18 02:12:24;;;;;;;123.60;13.82;;;;;;;4.01;100.00;102145.59;5200595;28;20112;-72
2021/10/18 02:14:56;;;;;;;62.33;14.43;;;;;;;3.95;100.00;102140.66;5200264;28;20029;-72
2021/10/18 02:17:26;;;;;;;19.92;12.38;;;;;;;3.89;100.00;102137.44;5190809;28;20057;-74
2021/10/18 02:19:57;;;;;;;28.90;14.63;;;;;;;3.89;100.00;102149.84;5195506;28;20102;-73
2021/10/18 02:22:27;;;;;;;23.02;12.00;;;;;;;3.87;100.00;102142.00;5199890;28;20498;-72
2021/10/18 02:24:58;;;;;;;21.25;11.10;;;;;;;3.84;100.00;102149.28;5195387;28;20156;-73
2021/10/18 02:27:28;;;;;;;24.02;13.13;;;;;;;3.86;100.00;102142.91;5179312;28;20038;-73
2021/10/18 02:29:59;;;;;;;32.78;15.73;;;;;;;3.88;100.00;102148.16;5192544;28;20083;-73
2021/10/18 02:32:31;;;;;;;24.55;14.50;;;;;;;3.86;100.00;102145.56;5179157;28;20480;-73
2021/10/18 02:35:01;;;;;;;28.90;14.32;;;;;;;3.88;100.00;102148.16;5179291;28;20447;-73
2021/10/18 02:37:32;;;;;;;36.60;16.63;;;;;;;3.88;100.00;102149.00;5192610;28;20021;-72
2021/10/18 02:40:03;;;;;;;38.35;17.00;;;;;;;3.86;100.00;102147.38;5199462;28;20029;-73
2021/10/18 02:42:34;;;;;;;37.97;17.05;;;;;;;3.82;100.00;102157.34;5194346;28;20053;-73
2021/10/18 02:45:07;;;;;;;35.72;17.45;;;;;;;3.78;100.00;102149.66;5179316;28;20026;-73
2021/10/18 02:47:38;;;;;;;31.65;15.02;;;;;;;3.74;100.00;102143.66;5179097;28;20084;-73
2021/10/18 02:50:09;;;;;;;38.85;16.48;;;;;;;3.71;100.00;102146.47;5181195;28;20025;-72
2021/10/18 02:52:40;;;;;;;38.35;17.08;;;;;;;3.65;100.00;102138.88;5192674;28;20099;-71
2021/10/18 02:55:10;;;;;;;34.47;17.20;;;;;;;3.64;100.00;102139.84;5179156;28;20021;-70
2021/10/18 02:57:41;;;;;;;38.83;16.77;;;;;;;3.61;100.00;102140.88;5186278;28;20087;-70
2021/10/18 03:00:13;;;;;;;32.22;16.77;;;;;;;3.58;100.00;102135.75;5195709;28;20073;-70
2021/10/18 03:02:43;;;;;;;38.20;15.98;;;;;;;3.56;100.00;102137.63;5186624;28;20131;-71
2021/10/18 03:05:14;;;;;;;30.55;15.43;;;;;;;3.54;100.00;102138.66;5183558;28;20113;-70
2021/10/18 03:07:50;;;;;;;32.00;15.85;;;;;;;3.51;100.00;102139.69;5180120;28;20369;-71
2021/10/18 03:10:21;;;;;;;30.73;14.88;;;;;;;3.49;100.00;102144.22;5196171;28;20040;-73
2021/10/18 03:12:52;;;;;;;36.15;16.42;;;;;;;3.46;100.00;102138.25;5198663;28;20021;-71
2021/10/18 03:15:23;;;;;;;33.65;16.13;;;;;;;3.41;100.00;102138.50;5192794;28;20029;-72
2021/10/18 03:17:54;;;;;;;33.08;17.00;;;;;;;3.36;100.00;102136.16;5178345;28;20054;-72
2021/10/18 03:20:24;;;;;;;34.50;17.10;;;;;;;3.34;100.00;102135.34;5165432;28;20045;-72
2021/10/18 03:22:56;;;;;;;48.40;18.23;;;;;;;3.30;100.00;102125.88;5192573;28;20022;-71
2021/10/18 03:25:27;;;;;;;36.75;16.73;;;;;;;3.27;100.00;102123.41;5190273;28;20033;-71
2021/10/18 03:27:57;;;;;;;89.97;19.83;;;;;;;3.26;100.00;102124.34;5191924;28;20030;-71
2021/10/18 03:30:28;;;;;;;52.33;14.77;;;;;;;3.24;100.00;102128.03;5188613;28;20120;-71
2021/10/18 03:32:58;;;;;;;24.65;11.75;;;;;;;3.19;100.00;102127.44;5198828;28;20032;-71
2021/10/18 03:35:29;;;;;;;33.70;12.73;;;;;;;3.13;100.00;102131.28;5199124;28;20030;-71
2021/10/18 03:37:59;;;;;;;31.00;15.13;;;;;;;3.11;100.00;102138.44;5185364;28;20083;-71
2021/10/18 03:40:30;;;;;;;31.73;15.48;;;;;;;3.10;100.00;102145.56;5198969;28;20403;-72
2021/10/18 03:43:00;;;;;;;34.15;15.07;;;;;;;3.09;100.00;102137.69;5182659;28;20173;-72
2021/10/18 03:45:31;;;;;;;27.58;14.52;;;;;;;3.07;100.00;102140.44;5196963;28;20332;-71
2021/10/18 03:48:01;;;;;;;26.35;13.60;;;;;;;3.05;100.00;102142.31;5202776;28;20301;-71
2021/10/18 03:50:32;;;;;;;22.75;11.50;;;;;;;3.05;100.00;102139.66;5191415;28;20479;-72
2021/10/18 03:53:03;;;;;;;19.77;11.13;;;;;;;3.09;100.00;102137.69;5193735;28;20026;-72
2021/10/18 03:55:33;;;;;;;21.20;11.55;;;;;;;3.16;100.00;102147.00;5198842;28;20372;-72
2021/10/18 03:58:04;;;;;;;22.70;12.18;;;;;;;3.11;100.00;102154.38;5174606;28;20263;-72
2021/10/18 04:00:34;;;;;;;31.83;13.85;;;;;;;3.10;100.00;102147.34;5193424;28;20045;-72
2021/10/18 04:03:05;;;;;;;28.58;14.80;;;;;;;3.07;100.00;102151.06;5193667;28;20550;-72
2021/10/18 04:05:35;;;;;;;25.75;14.05;;;;;;;3.04;100.00;102145.06;5196595;28;20125;-72
2021/10/18 04:08:06;;;;;;;33.42;16.88;;;;;;;3.01;100.00;102147.88;5184359;28;20048;-72
2021/10/18 04:10:36;;;;;;;42.78;16.77;;;;;;;3.02;100.00;102144.31;5202710;28;20469;-72
2021/10/18 04:13:07;;;;;;;34.95;16.67;;;;;;;3.00;100.00;102141.72;5189073;28;20117;-72
2021/10/18 04:15:37;;;;;;;34.67;17.00;;;;;;;3.02;100.00;102142.50;5193873;28;20084;-72
2021/10/18 04:18:08;;;;;;;42.60;19.17;;;;;;;3.01;100.00;102134.63;5181646;28;20042;-72
2021/10/18 04:20:38;;;;;;;39.72;17.15;;;;;;;3.00;100.00;102141.72;5181715;28;20041;-72
2021/10/18 04:23:09;;;;;;;43.17;16.90;;;;;;;2.99;100.00;102139.16;5181551;28;20033;-72
2021/10/18 04:25:39;;;;;;;35.22;16.40;;;;;;;2.99;100.00;102134.72;5193002;28;20034;-72
2021/10/18 04:28:10;;;;;;;43.33;17.27;;;;;;;3.01;100.00;102142.56;5188290;28;20152;-72
2021/10/18 04:30:40;;;;;;;38.08;17.35;;;;;;;3.01;100.00;102145.22;5201948;28;20104;-72
2021/10/18 04:33:11;;;;;;;40.60;17.77;;;;;;;3.01;100.00;102142.56;5182469;28;20030;-72
2021/10/18 04:35:42;;;;;;;43.17;18.67;;;;;;;2.99;100.00;102139.16;5181789;28;20136;-71
2021/10/18 04:38:12;;;;;;;36.95;17.92;;;;;;;2.98;100.00;102151.56;5202097;28;20018;-71
2021/10/18 04:40:43;;;;;;;41.25;16.98;;;;;;;2.96;100.00;102139.31;5200475;28;20465;-72
2021/10/18 04:43:13;;;;;;;37.55;16.27;;;;;;;2.92;100.00;102137.81;5193151;28;20029;-72
2021/10/18 04:45:44;;;;;;;33.55;15.13;;;;;;;2.89;100.00;102137.97;5194428;28;20041;-72
2021/10/18 04:48:14;;;;;;;32.30;16.55;;;;;;;2.88;100.00;102145.06;5181308;28;20022;-71
2021/10/18 04:50:45;;;;;;;38.45;16.02;;;;;;;2.88;100.00;102138.91;5187343;28;20493;-71
2021/10/18 04:53:15;;;;;;;34.50;16.38;;;;;;;2.88;100.00;102139.75;5189210;28;20450;-72
2021/10/18 04:55:46;;;;;;;30.98;14.82;;;;;;;2.88;100.00;102141.56;5186186;28;20032;-72
2021/10/18 04:58:16;;;;;;;29.70;15.50;;;;;;;2.87;100.00;102139.84;5189048;28;20087;-71
2021/10/18 05:00:49;;;;;;;28.23;15.50;;;;;;;2.87;100.00;102145.16;5191627;28;20475;-71
2021/10/18 05:03:20;;;;;;;30.45;15.50;;;;;;;2.85;100.00;102146.06;5180331;28;20392;-71
2021/10/18 05:05:51;;;;;;;34.42;15.82;;;;;;;2.85;100.00;102146.06;5188631;28;20025;-72
2021/10/18 05:08:22;;;;;;;32.83;15.45;;;;;;;2.85;100.00;102148.72;5189360;28;20052;-72
2021/10/18 05:10:52;;;;;;;33.50;13.90;;;;;;;2.88;100.00;102153.00;5201172;28;20017;-71
2021/10/18 05:13:23;;;;;;;32.88;15.05;;;;;;;2.98;100.00;102156.00;5187813;28;20025;-72
2021/10/18 05:15:53;;;;;;;35.05;15.40;;;;;;;3.03;100.00;102154.81;5200923;28;20025;-72
2021/10/18 05:18:24;;;;;;;37.95;17.85;;;;;;;3.05;100.00;102158.22;5184072;28;20404;-72
2021/10/18 05:20:54;;;;;;;45.80;18.85;;;;;;;3.07;100.00;102155.50;5191186;28;20487;-72
2021/10/18 05:23:25;;;;;;;49.53;19.15;;;;;;;3.07;100.00;102150.19;5196021;28;20438;-72
2021/10/18 05:25:55;;;;;;;42.42;18.00;;;;;;;3.08;100.00;102165.16;5192356;28;20082;-72
2021/10/18 05:28:26;;;;;;;44.63;19.52;;;;;;;3.06;100.00;102157.31;5195408;28;20033;-72
2021/10/18 05:30:56;;;;;;;48.95;18.38;;;;;;;3.06;100.00;102162.59;5180110;28;20036;-72
2021/10/18 05:33:27;;;;;;;47.95;19.05;;;;;;;3.03;100.00;102157.47;5193568;28;20025;-71
2021/10/18 05:35:57;;;;;;;53.92;19.95;;;;;;;3.03;100.00;102156.63;5194727;28;20022;-72
2021/10/18 05:38:28;;;;;;;50.45;20.13;;;;;;;3.04;100.00;102160.97;5200710;28;20033;-72
2021/10/18 05:40:58;;;;;;;47.30;18.58;;;;;;;3.04;100.00;102156.50;5197648;28;20045;-72
2021/10/18 05:43:29;;;;;;;57.88;20.75;;;;;;;3.04;100.00;102145.06;5179339;28;20058;-72
2021/10/18 05:45:59;;;;;;;49.08;18.83;;;;;;;3.03;100.00;102149.50;5195645;28;20274;-71
2021/10/18 05:48:30;;;;;;;53.15;21.65;;;;;;;3.03;100.00;102156.63;5200663;28;20108;-72
2021/10/18 05:51:00;;;;;;;58.00;23.20;;;;;;;3.09;100.00;102167.72;5181162;28;20069;-72
2021/10/18 05:53:31;;;;;;;53.17;20.08;;;;;;;3.19;100.00;102183.13;5179894;28;20124;-72
2021/10/18 05:56:01;;;;;;;50.85;20.38;;;;;;;3.21;100.00;102174.13;5193218;28;20029;-71
2021/10/18 05:58:32;;;;;;;52.13;21.02;;;;;;;3.23;100.00;102180.22;5193765;28;20243;-72
2021/10/18 06:01:03;;;;;;;60.13;22.85;;;;;;;3.25;100.00;102178.31;5189120;28;20022;-71
2021/10/18 06:03:33;;;;;;;51.30;20.95;;;;;;;3.26;100.00;102182.72;5181163;28;20179;-72
2021/10/18 06:06:07;;;;;;;55.03;21.55;;;;;;;3.32;100.00;102190.31;5199732;28;20051;-72
2021/10/18 06:08:37;;;;;;;70.93;24.13;;;;;;;3.36;100.00;102190.97;5183430;28;20235;-72
2021/10/18 06:11:09;;;;;;;64.55;24.40;;;;;;;3.39;100.00;102196.13;5189851;28;20029;-72
2021/10/18 06:13:39;;;;;;;59.67;23.65;;;;;;;3.39;100.00;102196.13;5181840;28;20026;-72
2021/10/18 06:16:10;;;;;;;60.30;21.83;;;;;;;3.40;100.00;102202.28;5179642;28;20334;-72
2021/10/18 06:18:40;;;;;;;62.33;21.58;;;;;;;3.39;100.00;102193.47;5192796;28;20029;-72
2021/10/18 06:21:11;;;;;;;65.20;23.20;;;;;;;3.39;100.00;102185.50;5179172;28;20056;-72
2021/10/18 06:23:43;;;;;;;50.67;20.05;;;;;;;3.38;100.00;102184.66;5179669;28;20100;-72
2021/10/18 06:26:13;;;;;;;71.47;23.20;;;;;;;3.40;100.00;102184.56;5192601;28;20017;-72
2021/10/18 06:28:44;;;;;;;65.45;25.20;;;;;;;3.45;100.00;102190.44;5170138;28;20021;-72
2021/10/18 06:31:14;;;;;;;62.30;23.23;;;;;;;3.50;100.00;102188.38;5196939;28;20769;-72
2021/10/18 06:33:45;;;;;;;65.10;23.65;;;;;;;3.56;100.00;102193.34;5161915;28;20057;-72
2021/10/18 06:36:15;;;;;;;68.63;24.48;;;;;;;3.65;100.00;102197.28;5178848;28;20047;-72
2021/10/18 06:38:46;;;;;;;58.55;21.92;;;;;;;3.73;100.00;102203.00;5179394;28;20022;-72
2021/10/18 06:41:16;;;;;;;60.33;22.98;;;;;;;3.80;100.00;102199.03;5194204;28;20082;-72
2021/10/18 06:43:47;;;;;;;65.30;24.65;;;;;;;3.87;100.00;102195.09;5186455;28;20495;-72
2021/10/18 06:46:17;;;;;;;58.28;23.02;;;;;;;3.94;100.00;102205.34;5191838;28;20029;-72
2021/10/18 06:48:48;;;;;;;55.15;21.70;;;;;;;4.02;100.00;102208.41;5179574;28;20125;-71
2021/10/18 06:51:18;;;;;;;57.13;22.15;;;;;;;4.09;100.00;102207.09;5187244;28;20492;-72
2021/10/18 06:53:53;;;;;;;62.88;22.42;;;;;;;4.16;100.00;102193.34;5185837;28;20047;-71
2021/10/18 06:56:24;;;;;;;53.67;22.25;;;;;;;4.26;100.00;102190.13;5199379;28;20034;-71
2021/10/18 06:58:54;;;;;;;49.88;18.60;;;;;;;4.37;100.00;102198.34;5198987;28;20388;-72
2021/10/18 07:01:25;;;;;;;53.08;22.13;;;;;;;4.46;100.00;102192.44;5198434;28;20060;-71
2021/10/18 07:03:55;;;;;;;48.88;18.75;;;;;;;4.56;100.00;102195.38;5199078;28;20061;-72
2021/10/18 07:06:25;;;;;;;46.58;19.27;;;;;;;4.64;100.00;102193.13;5198972;28;20075;-72
2021/10/18 07:08:56;;;;;;;56.15;21.98;;;;;;;4.76;100.00;102200.31;5181035;28;20076;-72
2021/10/18 07:11:26;;;;;;;46.70;20.58;;;;;;;4.89;100.00;102201.28;5192697;28;20036;-72
2021/10/18 07:13:57;;;;;;;63.20;23.58;;;;;;;5.12;100.00;102212.25;5199057;28;20026;-73
2021/10/18 07:16:27;;;;;;;50.72;22.05;;;;;;;5.29;100.00;102211.19;5197854;28;20175;-72
2021/10/18 07:18:58;;;;;;;61.63;25.02;;;;;;;5.38;100.00;102211.44;5198712;28;20040;-71
2021/10/18 07:21:29;;;;;;;58.75;22.85;;;;;;;5.51;100.00;102210.63;5186028;28;20067;-72
2021/10/18 07:24:03;;;;;;;51.83;21.48;;;;;;;5.68;100.00;102208.59;5199584;28;20032;-72
2021/10/18 07:26:34;;;;;;;61.80;25.67;;;;;;;5.91;100.00;102220.38;5185915;28;20395;-72
2021/10/18 07:29:04;;;;;;;62.70;25.42;;;;;;;6.16;100.00;102227.59;5198637;28;20025;-72
2021/10/18 07:31:35;;;;;;;61.58;25.25;;;;;;;6.35;100.00;102227.19;5179070;28;20510;-72
2021/10/18 07:34:12;;;;;;;51.53;22.23;;;;;;;6.58;100.00;102230.09;5178834;28;20236;-72
2021/10/18 07:36:49;;;;;;;43.65;17.95;;;;;;;6.79;100.00;102230.41;5190921;28;20044;-72
2021/10/18 07:39:22;;;;;;;49.42;21.00;;;;;;;6.98;100.00;102231.66;5181365;28;20025;-72
2021/10/18 07:41:55;;;;;;;57.80;22.98;;;;;;;7.09;100.00;102227.38;5186864;28;20021;-72
2021/10/18 07:44:26;;;;;;;52.03;22.35;;;;;;;7.15;100.00;102229.59;5183508;28;20049;-72
2021/10/18 07:46:59;;;;;;;52.97;22.35;;;;;;;7.32;100.00;102231.03;5186208;28;20025;-72
2021/10/18 07:49:33;;;;;;;60.83;22.05;;;;;;;7.47;100.00;102233.44;5193738;28;20026;-72
2021/10/18 07:52:04;;;;;;;50.03;21.05;;;;;;;7.59;100.00;102233.53;5192880;28;20028;-72
2021/10/18 07:54:35;;;;;;;46.13;20.95;;;;;;;7.72;100.00;102227.13;5172419;28;20034;-72
2021/10/18 07:57:05;;;;;;;50.20;22.48;;;;;;;7.87;100.00;102227.81;5193462;28;20068;-72
2021/10/18 07:59:36;;;;;;;53.08;21.67;;;;;;;8.15;100.00;102233.75;5188746;28;20022;-72
2021/10/18 08:02:07;;;;;;;44.30;19.15;;;;;;;8.37;100.00;102220.47;5177323;28;20048;-72
2021/10/18 08:04:37;;;;;;;45.17;19.50;;;;;;;8.58;100.00;102220.63;5189288;28;20033;-72
2021/10/18 08:07:08;;;;;;;48.63;19.15;;;;;;;8.73;100.00;102214.06;5193107;28;20348;-72
2021/10/18 08:09:38;;;;;;;46.88;19.63;;;;;;;8.88;100.00;102201.31;5177916;28;20543;-73
2021/10/18 08:12:09;;;;;;;40.25;19.67;;;;;;;8.79;100.00;102194.03;5190816;28;20160;-73
2021/10/18 08:14:39;;;;;;;40.25;18.52;;;;;;;8.99;100.00;102206.66;5178355;28;20481;-73
2021/10/18 08:17:09;;;;;;;38.28;17.42;;;;;;;9.21;100.00;102207.63;5177641;28;20033;-73
2021/10/18 08:19:40;;;;;;;36.85;17.73;;;;;;;9.08;100.00;102208.59;5179523;28;20029;-72
2021/10/18 08:22:10;;;;;;;36.17;17.17;;;;;;;9.12;100.00;102221.75;5198517;28;20041;-72
2021/10/18 08:24:43;;;;;;;36.28;17.67;;;;;;;9.16;100.00;102226.72;5185403;28;20109;-72
2021/10/18 08:27:14;;;;;;;38.03;17.27;;;;;;;9.38;100.00;102212.44;5188987;28;20026;-72
2021/10/18 08:29:44;;;;;;;40.75;18.10;;;;;;;9.58;100.00;102214.31;5163615;28;20018;-72
2021/10/18 08:32:15;;;;;;;31.30;14.50;;;;;;;9.59;100.00;102224.09;5193553;28;20116;-72
2021/10/18 08:34:45;;;;;;;37.55;15.82;;;;;;;9.54;100.00;102218.25;5202066;28;20013;-72
2021/10/18 08:37:16;;;;;;;32.65;16.33;;;;;;;9.44;100.00;102216.44;5188478;28;20352;-72
2021/10/18 08:42:28;;;;;;;32.60;15.77;;;;;;;9.42;100.00;102227.28;5180697;28;20161;-72
2021/10/18 08:44:58;;;;;;;36.20;15.90;;;;;;;9.39;100.00;102222.19;5191206;28;20029;-72
2021/10/18 08:47:29;;;;;;;38.67;15.93;;;;;;;9.33;100.00;102210.13;5184663;28;20095;-72
2021/10/18 08:49:59;;;;;;;38.15;16.83;;;;;;;9.29;100.00;102208.69;5180998;28;20022;-72
2021/10/18 08:52:30;;;;;;;37.53;16.35;;;;;;;9.40;100.00;102213.19;5193317;28;20333;-72
2021/10/18 08:55:01;;;;;;;30.50;13.93;;;;;;;9.69;100.00;102207.22;5193264;28;20367;-72
2021/10/18 08:57:32;;;;;;;29.80;14.60;;;;;;;9.95;100.00;102200.56;5181768;28;20041;-72
2021/10/18 09:00:05;;;;;;;38.25;15.50;;;;;;;10.42;100.00;102203.72;5191728;28;20025;-73
2021/10/18 09:02:38;;;;;;;30.50;14.57;;;;;;;10.83;100.00;102212.69;5163337;28;20025;-72
2021/10/18 09:05:10;;;;;;;25.98;13.77;;;;;;;11.20;100.00;102204.06;5194082;28;20025;-73
2021/10/18 09:07:40;;;;;;;28.70;13.50;;;;;;;11.23;100.00;102210.00;5182712;28;20049;-72
2021/10/18 09:10:12;;;;;;;28.77;13.40;;;;;;;11.34;100.00;102206.34;5193687;28;20267;-72
2021/10/18 09:12:44;;;;;;;23.77;12.95;;;;;;;11.31;100.00;102212.88;5191874;28;20025;-72
2021/10/18 09:15:24;;;;;;;27.80;14.43;;;;;;;11.54;100.00;102191.94;5200961;28;20402;-72
2021/10/18 09:17:57;;;;;;;28.33;12.98;;;;;;;11.61;100.00;102198.50;5200521;28;20391;-73
2021/10/18 09:20:31;;;;;;;24.20;12.65;;;;;;;12.05;100.00;102193.56;5188404;28;20120;-72
2021/10/18 09:23:25;;;;;;;27.30;12.57;;;;;;;12.41;100.00;102200.00;5200921;28;20375;-73
2021/10/18 09:26:06;;;;;;;25.50;12.60;;;;;;;12.41;100.00;102194.63;5187861;28;20030;-73
2021/10/18 09:28:37;;;;;;;21.45;12.32;;;;;;;12.37;100.00;102203.13;5188503;28;20059;-72
2021/10/18 09:31:16;;;;;;;22.42;11.95;;;;;;;12.25;100.00;102190.81;5200699;28;20021;-73
2021/10/18 09:33:55;;;;;;;20.02;12.30;;;;;;;12.42;100.00;102188.25;5190002;28;20029;-73
2021/10/18 09:36:33;;;;;;;21.00;10.68;;;;;;;12.55;100.00;102181.69;5193427;28;20507;-73
2021/10/18 09:39:25;;;;;;;25.52;10.38;;;;;;;12.38;100.00;102181.47;5179290;28;20155;-72
2021/10/18 09:42:01;;;;;;;19.65;9.40;;;;;;;12.39;100.00;102169.69;5180303;28;20380;-73
2021/10/18 10:54:07;;;;;;;11.23;5.40;;;;;;;14.95;100.00;102092.59;5185916;28;20033;-72
2021/10/18 10:56:44;;;;;;;11.45;5.95;;;;;;;15.10;100.00;102080.13;5187715;28;20029;-72
2021/10/18 10:59:28;;;;;;;11.35;5.63;;;;;;;15.40;100.00;102097.56;5191998;28;20037;-72
2021/10/18 11:02:09;;;;;;;9.23;5.43;;;;;;;15.65;100.00;102098.47;5177788;28;20109;-72
2021/10/18 11:04:42;;;;;;;8.05;4.57;;;;;;;15.49;100.00;102095.72;5178574;28;20108;-73
2021/10/18 11:07:16;;;;;;;10.90;4.82;;;;;;;15.36;100.00;102092.66;5178592;28;20049;-73
2021/10/18 11:09:48;;;;;;;10.03;5.23;;;;;;;15.46;100.00;102083.41;5178332;28;20541;-72
2021/10/18 11:12:28;;;;;;;9.07;5.07;;;;;;;15.44;100.00;102073.75;5165592;28;20522;-72
2021/10/18 11:15:04;;;;;;;10.65;5.13;;;;;;;15.63;100.00;102083.41;5180737;28;20080;-72
2021/10/18 11:17:37;;;;;;;8.25;4.63;;;;;;;15.96;100.00;102105.88;5199266;28;20518;-72
2021/10/18 11:20:10;;;;;;;6.97;4.55;;;;;;;16.23;100.00;102113.63;5193812;28;20034;-72
2021/10/18 11:22:44;;;;;;;10.35;4.78;;;;;;;16.30;100.00;102111.91;5190367;28;20049;-72
2021/10/18 11:25:17;;;;;;;6.43;3.97;;;;;;;16.38;100.00;102110.22;5185598;28;20053;-73
2021/10/18 11:27:54;;;;;;;9.98;4.93;;;;;;;16.15;100.00;102120.91;5198312;28;20040;-72
2021/10/18 11:30:27;;;;;;;9.65;4.63;;;;;;;16.18;100.00;102116.00;5178452;28;20029;-73
2021/10/18 11:33:02;;;;;;;9.98;5.03;;;;;;;16.25;100.00;102111.59;5191280;28;20032;-73
2021/10/18 11:35:34;;;;;;;8.48;5.00;;;;;;;16.11;100.00;102106.88;5178452;28;20025;-73
2021/10/18 11:38:08;;;;;;;12.05;4.80;;;;;;;15.86;100.00;102107.91;5197246;28;20645;-72
2021/10/18 11:40:44;;;;;;;9.00;5.17;;;;;;;15.79;100.00;102094.25;5197083;28;20113;-73
2021/10/18 11:43:19;;;;;;;9.45;4.78;;;;;;;15.68;100.00;102079.19;5166794;28;20466;-73
2021/10/18 11:45:53;;;;;;;7.72;4.45;;;;;;;15.46;100.00;102080.69;5194514;28;20052;-73
2021/10/18 11:48:25;;;;;;;10.00;5.57;;;;;;;15.30;100.00;102069.84;5199008;28;20391;-72
2021/10/18 11:51:00;;;;;;;10.80;4.45;;;;;;;15.27;100.00;102071.03;5179685;28;20017;-72
2021/10/18 11:53:39;;;;;;;11.07;5.37;;;;;;;15.37;100.00;102068.19;5178529;28;20030;-73
2021/10/18 11:56:17;;;;;;;9.18;5.03;;;;;;;15.46;100.00;102055.50;5166138;28;20061;-72
2021/10/18 11:58:49;;;;;;;11.98;4.75;;;;;;;15.55;100.00;102049.06;5181196;28;20030;-74
2021/10/18 12:01:24;;;;;;;8.70;4.43;;;;;;;15.58;100.00;102035.22;5180560;28;20029;-74
2021/10/18 12:03:58;;;;;;;7.75;4.78;;;;;;;15.47;100.00;102033.72;5189786;28;20022;-74
2021/10/18 12:06:29;;;;;;;9.40;4.70;;;;;;;15.58;100.00;102043.34;5188849;28;20056;-73
2021/10/18 12:09:04;;;;;;;10.30;5.00;;;;;;;15.68;100.00;102046.75;5181810;28;20026;-73
2021/10/18 12:11:35;;;;;;;7.93;4.20;;;;;;;15.70;100.00;102036.56;5195332;28;20025;-73
2021/10/18 12:14:05;;;;;;;13.40;4.75;;;;;;;15.79;100.00;102027.44;5191208;28;20499;-74
2021/10/18 12:16:36;;;;;;;8.25;4.80;;;;;;;15.78;100.00;102031.16;5185321;28;20037;-74
2021/10/18 12:19:07;;;;;;;8.18;4.50;;;;;;;15.63;100.00;102042.81;5181771;28;20018;-73
2021/10/18 12:21:40;;;;;;;8.77;4.60;;;;;;;15.60;100.00;102038.59;5195162;28;20100;-73
2021/10/18 12:24:14;;;;;;;8.90;4.28;;;;;;;15.57;100.00;102030.81;5181637;28;20032;-73
2021/10/18 12:26:52;;;;;;;9.20;4.83;;;;;;;15.55;100.00;102033.69;5188562;28;20039;-73
2021/10/18 12:29:23;;;;;;;11.68;4.72;;;;;;;15.64;100.00;102028.31;5186448;28;20284;-73
2021/10/18 12:31:56;;;;;;;7.47;4.90;;;;;;;15.78;100.00;102028.47;5182026;28;20376;-74
2021/10/18 12:34:29;;;;;;;14.15;5.22;;;;;;;15.91;100.00;102018.94;5197840;28;20021;-74
2021/10/18 12:37:08;;;;;;;11.02;4.85;;;;;;;16.09;100.00;102018.75;5191498;28;20022;-73
2021/10/18 12:39:45;;;;;;;8.77;4.57;;;;;;;16.11;100.00;102012.13;5194207;28;20038;-74
2021/10/18 12:42:20;;;;;;;11.05;4.80;;;;;;;16.19;100.00;102011.25;5181608;28;20022;-73